Time;durP1;ratioP1;P1;durP2;ratioP2;P2;SDS_P1;SDS_P2;PMS_P1;PMS_P2;Temp;Humidity;BMP_temperature;BMP_pressure;BME280_temperature;BME280_humidity;BME280_pressure;Samples;Min_cycle;Max_cycle;Signal;HPM_P1;HPM_P2
2022/06/22 02:47:45;;;;;;;14.70;2.38;;;20.50;99.90;;;;;;5347403;23;83214;-76
2022/06/22 02:50:23;;;;;;;11.45;2.70;;;20.50;99.90;;;;;;4903876;28;82368;-76
2022/06/22 02:52:58;;;;;;;8.57;2.35;;;20.50;99.90;;;;;;4904832;28;81861;-76
2022/06/22 02:55:28;;;;;;;9.90;3.35;;;20.30;99.90;;;;;;4904666;28;83487;-77
2022/06/22 02:57:54;;;;;;;11.15;2.70;;;20.30;99.90;;;;;;4905251;28;82064;-76
2022/06/22 03:00:22;;;;;;;10.13;2.85;;;20.40;99.90;;;;;;4903734;28;81992;-76
2022/06/22 03:02:53;;;;;;;9.40;2.50;;;20.30;99.90;;;;;;4904309;28;81836;-76
2022/06/22 03:05:20;;;;;;;12.32;2.70;;;20.30;99.90;;;;;;4902526;28;82016;-77
2022/06/22 03:07:52;;;;;;;15.73;2.70;;;20.40;99.90;;;;;;4904374;28;82413;-76
2022/06/22 03:10:27;;;;;;;6.45;2.30;;;20.40;99.90;;;;;;4904018;28;81888;-76
2022/06/22 03:12:56;;;;;;;8.25;2.33;;;20.30;99.90;;;;;;4904841;28;81735;-76
2022/06/22 03:15:24;;;;;;;13.32;1.98;;;20.30;99.90;;;;;;4903599;28;82428;-77
2022/06/22 03:17:51;;;;;;;9.73;2.00;;;20.30;99.90;;;;;;4904001;28;82185;-76
2022/06/22 03:20:20;;;;;;;10.85;1.98;;;20.40;99.90;;;;;;4903162;28;82938;-76
2022/06/22 03:22:50;;;;;;;13.52;1.50;;;20.50;99.00;;;;;;4903325;28;82771;-76
2022/06/22 03:25:25;;;;;;;10.63;1.80;;;20.50;94.80;;;;;;4904470;28;82058;-76
2022/06/22 03:27:54;;;;;;;12.00;2.22;;;20.60;94.60;;;;;;4904292;28;82509;-76
2022/06/22 03:30:24;;;;;;;12.70;2.58;;;20.60;93.30;;;;;;4904019;28;81985;-75
2022/06/22 03:33:03;;;;;;;10.15;1.70;;;20.60;93.00;;;;;;4904300;28;82040;-75
2022/06/22 03:36:05;;;;;;;14.63;1.75;;;20.70;92.10;;;;;;4903746;28;81834;-76
2022/06/22 03:38:37;;;;;;;;;;;20.60;92.40;;;;;;4888000;28;82103;-76
2022/06/22 03:41:08;;;;;;;14.75;2.17;;;20.60;92.80;;;;;;4905155;28;82017;-75
2022/06/22 03:43:46;;;;;;;11.40;2.03;;;20.70;94.70;;;;;;4902781;28;83773;-75
2022/06/22 03:46:22;;;;;;;12.18;2.05;;;20.70;95.00;;;;;;4903108;28;83122;-75
2022/06/22 03:49:01;;;;;;;9.90;2.40;;;20.80;95.80;;;;;;4918781;28;83384;-75
2022/06/22 03:51:36;;;;;;;9.20;2.13;;;20.80;97.30;;;;;;4922975;28;81982;-75
2022/06/22 03:54:20;;;;;;;11.00;1.83;;;20.80;99.90;;;;;;4914523;28;81838;-77
2022/06/22 03:56:51;;;;;;;9.32;2.50;;;20.70;99.90;;;;;;4903671;28;83448;-77
2022/06/22 03:59:17;;;;;;;8.48;2.17;;;20.80;99.90;;;;;;4904977;28;81848;-76
2022/06/22 04:01:43;;;;;;;9.90;2.45;;;20.90;99.90;;;;;;4918040;28;81765;-76
2022/06/22 04:04:10;;;;;;;11.07;2.15;;;20.90;99.90;;;;;;4904445;28;82612;-76
2022/06/22 04:06:40;;;;;;;12.13;2.63;;;20.90;99.90;;;;;;4910275;28;81985;-76
2022/06/22 04:09:18;;;;;;;11.65;2.10;;;20.70;99.90;;;;;;4901352;28;82526;-77
2022/06/22 04:11:49;;;;;;;11.73;2.10;;;20.70;99.90;;;;;;4901928;28;83132;-76
2022/06/22 04:14:15;;;;;;;8.07;1.83;;;20.80;99.90;;;;;;4903499;28;82331;-77
2022/06/22 04:16:44;;;;;;;12.18;2.35;;;20.90;99.90;;;;;;4903368;28;83470;-77
2022/06/22 04:19:46;;;;;;;7.35;2.65;;;20.90;99.90;;;;;;4894112;28;82816;-77
2022/06/22 04:22:16;;;;;;;10.93;3.00;;;20.90;99.90;;;;;;4870742;28;82066;-77
2022/06/22 04:24:54;;;;;;;7.88;2.20;;;21.00;99.90;;;;;;4902613;28;81982;-77
2022/06/22 04:27:23;;;;;;;13.60;2.67;;;21.00;99.90;;;;;;4902405;28;81962;-75
2022/06/22 04:29:59;;;;;;;10.25;2.50;;;21.10;99.90;;;;;;4906704;28;82650;-76
2022/06/22 04:32:30;;;;;;;9.10;2.33;;;21.10;99.90;;;;;;4899635;28;83462;-76
2022/06/22 04:35:10;;;;;;;7.32;2.42;;;21.10;99.90;;;;;;4900411;28;82568;-77
2022/06/22 04:37:45;;;;;;;9.32;2.35;;;21.00;99.90;;;;;;4895368;28;84095;-77
2022/06/22 04:40:18;;;;;;;10.52;2.03;;;20.90;99.90;;;;;;4903028;28;83209;-77
2022/06/22 04:42:45;;;;;;;7.30;2.05;;;21.00;99.90;;;;;;4898861;28;82080;-77
2022/06/22 04:45:29;;;;;;;8.48;1.95;;;21.10;99.90;;;;;;4903232;28;82332;-77
2022/06/22 04:48:01;;;;;;;13.38;2.55;;;21.20;99.90;;;;;;4897259;28;82859;-75
2022/06/22 04:50:27;;;;;;;8.80;2.10;;;21.10;99.90;;;;;;4898649;28;82036;-76
2022/06/22 04:52:55;;;;;;;5.82;1.60;;;21.10;99.90;;;;;;4897886;28;81967;-76
2022/06/22 04:55:24;;;;;;;8.70;2.00;;;21.10;99.90;;;;;;4903255;28;81402;-78
2022/06/22 04:57:54;;;;;;;8.27;2.10;;;21.20;99.90;;;;;;4902802;28;82441;-78
2022/06/22 05:00:23;;;;;;;9.77;2.63;;;21.30;99.90;;;;;;4898070;28;82255;-76
2022/06/22 05:02:56;;;;;;;11.13;2.22;;;21.40;99.90;;;;;;4900192;28;83005;-77
2022/06/22 05:05:29;;;;;;;12.85;2.30;;;21.50;99.90;;;;;;4900866;28;81906;-76
2022/06/22 05:08:22;;;;;;;10.43;2.00;;;21.30;99.90;;;;;;4903929;28;82521;-76
2022/06/22 05:11:00;;;;;;;8.80;2.10;;;21.50;99.90;;;;;;4899599;28;82923;-77
2022/06/22 05:13:33;;;;;;;9.88;2.10;;;21.50;99.90;;;;;;4901960;28;81875;-78
2022/06/22 05:16:03;;;;;;;9.82;1.80;;;21.50;99.90;;;;;;4902039;28;81834;-76
2022/06/22 05:18:33;;;;;;;10.20;2.53;;;21.60;99.90;;;;;;4898832;28;82639;-78
2022/06/22 05:21:27;;;;;;;11.07;2.45;;;21.70;99.90;;;;;;4900849;28;83266;-76
2022/06/22 05:23:57;;;;;;;12.07;2.55;;;21.80;99.90;;;;;;4898715;28;82410;-77
2022/06/22 05:26:24;;;;;;;9.93;2.15;;;21.80;99.90;;;;;;4900972;28;83056;-77
2022/06/22 05:29:14;;;;;;;7.07;1.80;;;21.80;99.90;;;;;;4900872;28;84107;-77
2022/06/22 05:31:56;;;;;;;10.25;1.70;;;22.00;99.90;;;;;;4902408;28;83254;-79
2022/06/22 05:34:29;;;;;;;8.88;2.40;;;22.00;99.90;;;;;;4897342;28;82973;-76
2022/06/22 05:37:02;;;;;;;11.63;2.67;;;22.00;99.90;;;;;;4898922;28;81828;-76
2022/06/22 05:39:28;;;;;;;13.88;2.28;;;22.10;99.90;;;;;;4895321;28;82041;-77
2022/06/22 05:41:54;;;;;;;10.82;2.35;;;22.10;99.90;;;;;;4902365;28;83013;-77
2022/06/22 05:44:22;;;;;;;8.85;2.55;;;22.10;99.90;;;;;;4900778;28;82006;-77
2022/06/22 05:46:59;;;;;;;8.20;2.38;;;22.20;99.90;;;;;;4896204;28;81628;-77
2022/06/22 05:49:44;;;;;;;7.57;2.17;;;22.20;99.90;;;;;;4897189;28;81959;-77
2022/06/22 05:52:13;;;;;;;8.73;2.58;;;22.30;99.90;;;;;;4901277;28;82406;-76
2022/06/22 05:54:48;;;;;;;8.90;2.63;;;22.30;99.90;;;;;;4900627;28;83568;-78
2022/06/22 05:57:42;;;;;;;12.43;3.17;;;22.70;99.90;;;;;;4896807;28;82892;-77
2022/06/22 06:00:17;;;;;;;10.52;2.60;;;23.30;98.90;;;;;;4896354;28;82172;-77
2022/06/22 06:02:49;;;;;;;11.93;2.70;;;23.70;97.50;;;;;;4896025;28;82201;-76
2022/06/22 06:05:45;;;;;;;8.73;2.20;;;24.30;96.80;;;;;;4898258;28;81923;-76
2022/06/22 06:08:26;;;;;;;11.45;2.90;;;25.20;92.00;;;;;;4888535;28;81840;-76
2022/06/22 06:10:53;;;;;;;8.80;2.35;;;24.70;92.50;;;;;;4887798;28;82000;-77
2022/06/22 06:13:38;;;;;;;8.48;2.65;;;24.20;93.80;;;;;;4900637;28;81589;-76
2022/06/22 06:16:14;;;;;;;11.93;3.75;;;23.90;95.40;;;;;;4901253;28;82024;-77
2022/06/22 06:18:42;;;;;;;7.93;3.47;;;23.50;97.40;;;;;;4893137;28;82194;-76
2022/06/22 06:21:17;;;;;;;11.80;3.97;;;23.40;99.00;;;;;;4899168;28;82984;-77
2022/06/22 06:24:11;;;;;;;8.02;2.30;;;23.80;98.10;;;;;;4889840;28;82934;-77
2022/06/22 06:29:47;;;;;;;5.75;2.55;;;25.00;93.20;;;;;;4900598;28;82244;-77
2022/06/22 06:32:37;;;;;;;8.50;2.55;;;25.90;91.50;;;;;;4907533;28;82012;-78
2022/06/22 06:35:27;;;;;;;8.52;2.95;;;26.40;88.10;;;;;;4903558;28;82908;-77
2022/06/22 06:38:32;;;;;;;8.43;3.00;;;26.10;86.50;;;;;;4900019;28;81807;-78
2022/06/22 06:41:14;;;;;;;7.07;3.15;;;25.70;87.30;;;;;;4900424;28;81659;-77
2022/06/22 06:43:57;;;;;;;9.43;4.15;;;25.70;88.50;;;;;;4899617;28;82530;-77
2022/06/22 06:46:31;;;;;;;12.13;3.88;;;25.90;87.60;;;;;;4900089;28;82376;-76
2022/06/22 06:49:30;;;;;;;9.38;3.38;;;25.80;87.20;;;;;;4897741;28;82925;-77
2022/06/22 06:52:03;;;;;;;13.52;3.80;;;25.70;86.70;;;;;;4898547;28;82397;-77
2022/06/22 06:54:29;;;;;;;10.85;2.95;;;25.30;87.00;;;;;;4898999;28;82626;-76
2022/06/22 06:57:00;;;;;;;8.35;3.35;;;25.30;84.60;;;;;;4898529;28;81967;-77
2022/06/22 06:59:29;;;;;;;10.98;3.60;;;25.20;84.70;;;;;;4897510;28;82925;-77
2022/06/22 07:01:59;;;;;;;12.45;2.60;;;25.10;86.80;;;;;;4898551;28;82638;-76
2022/06/22 07:04:32;;;;;;;9.45;2.83;;;25.10;86.30;;;;;;4898153;28;82638;-77
2022/06/22 07:07:26;;;;;;;9.52;3.92;;;25.00;86.30;;;;;;4899545;28;81674;-78
2022/06/22 07:09:54;;;;;;;9.68;2.83;;;24.70;86.50;;;;;;4892839;28;82142;-77
2022/06/22 07:12:30;;;;;;;13.73;3.75;;;24.60;89.10;;;;;;4906468;28;81799;-77
2022/06/22 07:14:59;;;;;;;11.30;3.72;;;24.70;87.10;;;;;;4900516;28;84395;-77
2022/06/22 07:17:26;;;;;;;15.57;4.50;;;24.30;90.40;;;;;;4898665;28;82943;-78
2022/06/22 07:20:04;;;;;;;14.68;3.70;;;23.90;92.00;;;;;;4901993;28;82195;-78
2022/06/22 07:22:40;;;;;;;16.83;4.20;;;23.50;93.70;;;;;;4899331;28;82386;-76
2022/06/22 07:25:41;;;;;;;12.98;2.92;;;23.60;93.40;;;;;;4900052;28;82365;-78
2022/06/22 07:28:18;;;;;;;14.43;3.58;;;23.50;93.80;;;;;;4899275;28;82138;-78
2022/06/22 07:31:08;;;;;;;9.85;3.65;;;23.40;94.90;;;;;;4903160;28;82563;-77
2022/06/22 07:33:36;;;;;;;12.63;2.53;;;23.20;96.90;;;;;;4903913;28;81551;-76
2022/06/22 07:36:07;;;;;;;11.02;3.33;;;24.00;94.90;;;;;;4902328;28;81945;-77
2022/06/22 07:38:47;;;;;;;12.82;3.67;;;24.70;94.40;;;;;;4902498;28;82215;-77
2022/06/22 07:41:19;;;;;;;10.02;3.20;;;25.30;91.70;;;;;;4900934;28;82983;-78
2022/06/22 07:43:51;;;;;;;14.40;3.50;;;25.40;91.20;;;;;;4900149;28;83058;-76
2022/06/22 07:46:25;;;;;;;12.60;3.35;;;25.40;89.50;;;;;;4904963;28;83225;-76
2022/06/22 07:48:58;;;;;;;15.45;4.60;;;25.10;89.00;;;;;;4902639;28;82282;-78
2022/06/22 07:51:29;;;;;;;14.98;3.47;;;24.60;90.60;;;;;;4902027;28;81949;-77
2022/06/22 07:54:03;;;;;;;37.65;5.47;;;24.00;91.90;;;;;;4904390;28;82416;-77
2022/06/22 07:56:42;;;;;;;13.18;3.28;;;23.90;92.30;;;;;;4902431;28;82095;-77
2022/06/22 07:59:15;;;;;;;11.52;3.28;;;23.90;92.60;;;;;;4903069;28;82125;-78
2022/06/22 08:01:43;;;;;;;12.13;4.60;;;23.90;93.10;;;;;;4899076;28;83218;-78
2022/06/22 08:04:25;;;;;;;8.88;3.00;;;24.00;91.90;;;;;;4902792;28;81899;-77
2022/06/22 08:07:08;;;;;;;13.40;3.42;;;24.00;92.60;;;;;;4902212;28;84037;-77
2022/06/22 08:09:44;;;;;;;10.80;2.88;;;23.90;92.50;;;;;;4901426;28;83223;-76
2022/06/22 08:12:19;;;;;;;11.10;3.00;;;23.90;92.40;;;;;;4902838;28;81797;-76
2022/06/22 08:14:48;;;;;;;12.40;2.78;;;23.80;92.40;;;;;;4901347;28;81836;-77
2022/06/22 08:17:40;;;;;;;12.90;3.25;;;23.80;92.30;;;;;;4902865;28;82009;-77
2022/06/22 08:20:08;;;;;;;11.52;3.60;;;23.70;92.70;;;;;;4902486;28;82299;-78
2022/06/22 08:22:34;;;;;;;11.40;3.65;;;23.70;92.80;;;;;;4902639;28;82171;-76
2022/06/22 08:25:02;;;;;;;11.30;3.88;;;23.60;92.00;;;;;;4902935;28;81433;-78
2022/06/22 08:27:29;;;;;;;11.20;3.55;;;23.60;92.60;;;;;;4902568;28;84212;-78
2022/06/22 08:29:56;;;;;;;11.35;2.63;;;23.60;92.60;;;;;;4902023;28;82208;-77
2022/06/22 08:32:30;;;;;;;10.38;3.85;;;23.60;92.60;;;;;;4901251;28;83036;-77
2022/06/22 08:35:02;;;;;;;9.77;3.42;;;23.50;92.40;;;;;;4898887;28;84494;-77
2022/06/22 08:37:46;;;;;;;11.00;3.17;;;23.60;92.00;;;;;;4903281;28;82109;-76
2022/06/22 08:40:33;;;;;;;10.13;2.67;;;23.60;91.90;;;;;;4900428;28;82558;-77
2022/06/22 08:43:02;;;;;;;11.43;3.53;;;23.50;91.20;;;;;;4897966;28;81957;-77
2022/06/22 08:46:02;;;;;;;10.15;2.92;;;23.40;91.60;;;;;;4905931;28;82048;-76
2022/06/22 08:48:56;;;;;;;11.38;2.70;;;23.40;91.80;;;;;;4899034;28;81798;-76
2022/06/22 08:51:39;;;;;;;9.82;2.80;;;23.50;92.20;;;;;;4890452;28;83151;-76
2022/06/22 08:54:05;;;;;;;15.40;2.97;;;23.40;92.30;;;;;;4897621;28;82350;-77
2022/06/22 08:57:02;;;;;;;12.50;3.65;;;23.50;92.30;;;;;;4901519;28;82512;-77
2022/06/22 08:59:44;;;;;;;13.52;4.38;;;23.40;90.50;;;;;;4898445;28;83618;-76
2022/06/22 09:02:31;;;;;;;10.32;3.08;;;23.50;90.50;;;;;;4905577;28;82749;-76
2022/06/22 09:05:06;;;;;;;13.32;2.28;;;23.70;90.10;;;;;;4899358;28;82017;-76
2022/06/22 09:07:47;;;;;;;9.52;2.63;;;23.70;87.20;;;;;;4901005;28;82080;-77
2022/06/22 09:10:51;;;;;;;16.70;3.20;;;23.50;89.50;;;;;;4899025;28;82541;-76
2022/06/22 09:13:52;;;;;;;8.88;2.70;;;23.20;88.20;;;;;;4903500;28;82285;-77
2022/06/22 09:16:35;;;;;;;10.52;2.88;;;23.30;91.30;;;;;;4899821;28;81835;-76
2022/06/22 09:19:33;;;;;;;14.48;2.70;;;23.20;91.30;;;;;;4900928;28;82184;-76
2022/06/22 09:22:08;;;;;;;10.80;2.45;;;23.10;93.00;;;;;;4889927;28;82431;-77
2022/06/22 09:25:01;;;;;;;11.57;2.40;;;23.10;93.60;;;;;;4882744;28;82168;-76
2022/06/22 09:27:44;;;;;;;15.57;3.65;;;23.20;92.50;;;;;;4896178;28;82999;-76
2022/06/22 09:30:51;;;;;;;10.23;2.35;;;23.20;92.50;;;;;;4896101;28;81964;-76
2022/06/22 09:33:53;;;;;;;11.45;3.15;;;23.20;93.60;;;;;;4898299;28;83707;-76
2022/06/22 09:36:43;;;;;;;12.52;2.63;;;23.30;93.90;;;;;;4898073;28;82677;-76
2022/06/22 09:39:36;;;;;;;14.05;2.47;;;23.40;93.60;;;;;;4896757;28;81985;-77
2022/06/22 09:42:41;;;;;;;11.10;3.13;;;23.50;94.70;;;;;;4895815;28;82438;-76
2022/06/22 09:45:16;;;;;;;10.60;2.83;;;23.40;93.70;;;;;;4872793;28;83538;-76
2022/06/22 09:47:44;;;;;;;10.65;2.90;;;23.40;93.30;;;;;;4900839;28;82228;-77
2022/06/22 09:50:48;;;;;;;12.35;3.10;;;23.50;93.10;;;;;;4898496;28;82030;-76
2022/06/22 09:53:22;;;;;;;10.23;3.28;;;23.40;92.40;;;;;;4898910;28;82143;-76
2022/06/22 09:56:22;;;;;;;15.82;3.40;;;23.50;92.90;;;;;;4900534;28;83034;-76
2022/06/22 09:59:03;;;;;;;12.70;3.53;;;23.50;92.80;;;;;;4899236;28;82662;-76
2022/06/22 10:01:40;;;;;;;13.18;2.75;;;23.90;94.50;;;;;;4899746;28;81931;-76
2022/06/22 10:04:17;;;;;;;11.95;3.47;;;24.10;92.20;;;;;;4895690;28;82043;-76
2022/06/22 10:07:11;;;;;;;11.70;3.03;;;24.20;92.50;;;;;;4891055;28;82676;-76
2022/06/22 10:10:06;;;;;;;13.02;3.25;;;24.40;91.50;;;;;;4883460;28;82942;-77
2022/06/22 10:12:56;;;;;;;11.30;2.38;;;24.50;91.80;;;;;;4898318;28;82397;-76
2022/06/22 10:15:30;;;;;;;10.80;3.10;;;24.40;92.30;;;;;;4897905;28;82687;-76
2022/06/22 10:18:35;;;;;;;21.90;6.82;;;24.60;92.00;;;;;;4899992;28;82610;-76
2022/06/22 10:21:01;;;;;;;12.63;4.47;;;24.90;91.80;;;;;;4897485;28;82920;-74
2022/06/22 10:23:53;;;;;;;56.00;18.58;;;25.30;91.70;;;;;;4890646;28;83324;-76
2022/06/22 10:26:38;;;;;;;21.20;7.07;;;25.20;90.50;;;;;;4886657;28;82905;-75
2022/06/22 10:29:22;;;;;;;15.57;5.70;;;25.10;91.00;;;;;;4895966;28;83099;-76
2022/06/22 10:32:06;;;;;;;15.52;5.43;;;24.90;91.20;;;;;;4895972;28;82407;-75
2022/06/22 10:34:42;;;;;;;13.90;4.35;;;24.70;91.00;;;;;;4896940;28;82127;-75
2022/06/22 10:37:45;;;;;;;13.00;3.42;;;24.40;90.10;;;;;;4890766;28;82172;-75
2022/06/22 10:45:08;;;;;;;12.95;3.47;;;24.40;90.60;;;;;;4888206;28;82974;-76
2022/06/22 10:46:22;;;;;;;10.98;3.65;;;24.60;88.80;;;;;;4888642;28;82443;-75
2022/06/22 10:49:04;;;;;;;12.73;3.20;;;24.70;87.80;;;;;;4887988;28;83413;-75
2022/06/22 10:51:55;;;;;;;13.48;4.10;;;24.70;87.50;;;;;;4906775;28;84948;-75
2022/06/22 10:55:02;;;;;;;10.32;4.38;;;24.70;88.90;;;;;;4899248;28;82830;-75
2022/06/22 10:57:59;;;;;;;10.68;4.45;;;24.60;88.60;;;;;;4848573;29;82190;-75
2022/06/22 11:00:28;;;;;;;10.13;3.40;;;24.50;89.60;;;;;;4832235;28;81747;-75
2022/06/22 11:03:21;;;;;;;10.25;2.67;;;24.40;90.50;;;;;;4886370;28;82380;-76
2022/06/22 11:06:23;;;;;;;11.05;2.97;;;24.10;88.60;;;;;;4897988;28;84559;-74
2022/06/22 11:08:56;;;;;;;12.70;2.95;;;23.90;89.40;;;;;;4897721;28;82316;-74
2022/06/22 11:11:35;;;;;;;12.55;3.20;;;23.90;89.50;;;;;;4900708;28;82013;-75
2022/06/22 11:14:19;;;;;;;9.55;1.92;;;24.00;90.10;;;;;;4895747;28;82629;-75
2022/06/22 11:17:21;;;;;;;18.02;3.38;;;24.20;90.00;;;;;;4902561;28;82072;-78
2022/06/22 11:19:59;;;;;;;13.05;2.58;;;24.30;88.80;;;;;;4903968;28;82983;-75
2022/06/22 11:22:32;;;;;;;12.25;3.40;;;24.20;89.80;;;;;;4905740;28;82794;-76
2022/06/22 11:32:19;;;;;;;16.15;3.58;;;24.00;90.80;;;;;;4865736;28;84198;-75
2022/06/22 11:35:19;;;;;;;18.17;3.72;;;23.80;91.60;;;;;;4905387;28;82082;-74
2022/06/22 11:38:17;;;;;;;9.80;3.20;;;24.40;90.40;;;;;;4847154;28;83902;-75
2022/06/22 11:40:48;;;;;;;11.10;2.97;;;24.70;88.20;;;;;;4900498;28;82112;-74
2022/06/22 11:43:47;;;;;;;15.45;2.58;;;25.00;86.30;;;;;;4905207;28;82002;-76
2022/06/22 11:46:48;;;;;;;15.30;3.15;;;25.30;85.00;;;;;;4900305;28;82673;-75
2022/06/22 11:49:29;;;;;;;13.45;3.55;;;26.00;82.30;;;;;;4859727;28;83701;-75
2022/06/22 11:52:32;;;;;;;12.02;3.15;;;26.10;80.50;;;;;;4896978;28;82407;-75
2022/06/22 11:55:03;;;;;;;14.55;3.13;;;26.40;81.10;;;;;;4901851;28;81984;-75
2022/06/22 11:57:50;;;;;;;21.65;3.65;;;27.00;78.20;;;;;;4896792;28;81859;-75
2022/06/22 12:00:34;;;;;;;18.02;3.38;;;27.20;78.30;;;;;;4900612;28;83622;-75
2022/06/22 12:03:18;;;;;;;12.43;2.55;;;27.50;76.20;;;;;;4901211;28;82415;-74
2022/06/22 12:05:49;;;;;;;17.48;3.10;;;27.90;74.10;;;;;;4899939;28;82192;-75
2022/06/22 12:08:36;;;;;;;13.65;3.25;;;27.80;73.20;;;;;;4901110;28;81536;-74
2022/06/22 12:11:22;;;;;;;10.63;3.38;;;27.00;74.90;;;;;;4898435;28;81797;-75
2022/06/22 12:16:53;;;;;;;11.55;2.88;;;26.40;75.90;;;;;;4900523;28;82539;-75
2022/06/22 12:19:22;;;;;;;18.15;3.78;;;26.70;76.10;;;;;;4899123;28;82331;-75
2022/06/22 12:22:09;;;;;;;10.77;3.55;;;27.20;74.30;;;;;;4901140;28;82985;-77
2022/06/22 12:24:48;;;;;;;11.55;3.28;;;27.30;72.60;;;;;;4900246;28;82096;-77
2022/06/22 12:27:30;;;;;;;11.90;3.08;;;26.80;72.60;;;;;;4902250;28;82778;-74
2022/06/22 12:30:07;;;;;;;15.95;3.58;;;26.20;73.10;;;;;;4899320;28;82018;-75
2022/06/22 12:33:22;;;;;;;11.30;3.33;;;25.50;78.00;;;;;;4897485;28;82216;-75
2022/06/22 12:35:54;;;;;;;11.98;3.40;;;26.10;77.10;;;;;;4884716;28;84447;-76
2022/06/22 12:38:37;;;;;;;14.73;3.63;;;26.60;75.80;;;;;;4900943;28;81969;-74
2022/06/22 12:41:16;;;;;;;15.82;3.90;;;26.40;75.80;;;;;;4900633;28;82122;-74
2022/06/22 12:43:53;;;;;;;12.57;3.97;;;26.90;74.30;;;;;;4900090;28;83583;-77
2022/06/22 12:46:46;;;;;;;11.55;1.95;;;26.90;72.90;;;;;;4901690;28;83825;-75
2022/06/22 12:49:36;;;;;;;12.77;3.38;;;26.90;73.80;;;;;;4900405;28;83745;-75
2022/06/22 12:52:21;;;;;;;19.08;3.22;;;27.10;71.00;;;;;;4897620;28;81946;-72
2022/06/22 12:55:04;;;;;;;14.27;3.65;;;26.60;73.20;;;;;;4896525;28;82302;-74
2022/06/22 12:57:37;;;;;;;15.88;3.75;;;26.50;73.30;;;;;;4901653;28;83250;-73
2022/06/22 13:00:08;;;;;;;17.67;3.45;;;26.40;74.60;;;;;;4897242;28;81765;-73
2022/06/22 13:02:36;;;;;;;17.30;3.70;;;26.10;74.20;;;;;;4898933;28;82741;-75
2022/06/22 13:05:18;;;;;;;13.48;3.05;;;26.10;74.70;;;;;;4901291;28;82296;-72
2022/06/22 13:07:50;;;;;;;12.18;2.92;;;26.10;73.10;;;;;;4899346;28;82577;-75
2022/06/22 13:10:21;;;;;;;15.93;3.15;;;26.30;73.20;;;;;;4900551;28;82586;-74
2022/06/22 13:13:18;;;;;;;14.13;3.17;;;26.70;71.70;;;;;;4900531;28;83706;-73
2022/06/22 13:15:49;;;;;;;17.85;3.00;;;26.70;70.60;;;;;;4900472;28;82155;-77
2022/06/22 13:18:34;;;;;;;17.98;2.50;;;26.00;71.80;;;;;;4901209;28;83106;-75
2022/06/22 13:21:13;;;;;;;15.90;3.25;;;25.50;73.60;;;;;;4899572;28;81940;-75
2022/06/22 13:23:57;;;;;;;11.88;2.95;;;25.40;73.40;;;;;;4900522;28;83284;-75
2022/06/22 13:26:41;;;;;;;16.75;3.53;;;25.40;73.90;;;;;;4897282;28;81991;-76
2022/06/22 13:29:31;;;;;;;11.23;2.83;;;25.30;75.60;;;;;;4900952;28;82132;-75
2022/06/22 13:32:00;;;;;;;11.15;2.90;;;25.10;76.90;;;;;;4899999;28;82907;-76
2022/06/22 13:34:48;;;;;;;18.80;3.42;;;24.90;79.40;;;;;;4900213;28;82119;-77
2022/06/22 13:37:28;;;;;;;16.83;3.13;;;25.30;78.20;;;;;;4899072;28;83154;-74
2022/06/22 13:40:06;;;;;;;16.33;3.53;;;25.40;77.50;;;;;;4901851;28;82313;-74
2022/06/22 13:42:51;;;;;;;12.93;2.97;;;25.50;77.50;;;;;;4900443;28;82232;-74
2022/06/22 13:45:25;;;;;;;11.05;2.60;;;25.90;77.70;;;;;;4902154;28;82367;-73
2022/06/22 13:48:00;;;;;;;11.65;2.97;;;26.50;76.00;;;;;;4899316;28;82269;-73
2022/06/22 13:51:07;;;;;;;17.63;3.70;;;26.60;75.10;;;;;;4899497;28;82695;-74
2022/06/22 13:53:54;;;;;;;13.15;3.30;;;27.00;72.00;;;;;;4898470;28;82099;-74
2022/06/22 13:57:17;;;;;;;14.10;2.55;;;27.10;74.40;;;;;;4898970;28;81545;-73
2022/06/22 14:00:05;;;;;;;17.58;3.55;;;27.00;70.90;;;;;;4875722;28;83269;-75
2022/06/22 14:02:45;;;;;;;14.80;3.70;;;26.90;72.10;;;;;;4877437;28;84734;-74
2022/06/22 14:05:26;;;;;;;11.23;2.63;;;26.90;71.50;;;;;;4888129;28;83020;-74
2022/06/22 14:08:19;;;;;;;13.48;3.22;;;27.10;71.40;;;;;;4895829;28;82023;-73
2022/06/22 14:10:54;;;;;;;16.98;4.32;;;27.10;73.30;;;;;;4891319;28;82059;-73
2022/06/22 14:13:45;;;;;;;18.83;2.50;;;27.30;71.70;;;;;;4897531;28;81933;-73
2022/06/22 14:16:43;;;;;;;12.50;2.85;;;27.40;72.00;;;;;;4900589;28;81994;-73
2022/06/22 14:19:30;;;;;;;18.25;3.92;;;27.40;72.60;;;;;;4897047;28;82093;-75
2022/06/22 14:21:59;;;;;;;14.60;4.13;;;27.30;71.50;;;;;;4897197;28;82156;-74
2022/06/22 14:24:30;;;;;;;16.30;3.25;;;27.00;72.30;;;;;;4899330;28;82537;-74
2022/06/22 14:27:05;;;;;;;15.20;3.65;;;27.10;71.90;;;;;;4894345;28;81529;-74
2022/06/22 14:29:49;;;;;;;20.10;3.63;;;27.30;69.60;;;;;;4897110;28;82261;-74
2022/06/22 14:32:20;;;;;;;8.98;2.72;;;27.20;69.90;;;;;;4899351;28;83115;-73
2022/06/22 14:35:28;;;;;;;14.25;2.72;;;27.30;73.80;;;;;;4899329;28;83059;-73
2022/06/22 14:38:00;;;;;;;14.32;3.92;;;27.50;72.70;;;;;;4902090;28;81892;-74
2022/06/22 14:41:07;;;;;;;15.43;3.60;;;27.40;73.80;;;;;;4900547;28;82099;-74
2022/06/22 14:43:40;;;;;;;15.90;4.90;;;27.30;70.90;;;;;;4857568;28;82405;-76
2022/06/22 14:46:35;;;;;;;15.45;3.00;;;26.90;72.60;;;;;;4889443;28;82228;-73
2022/06/22 14:49:20;;;;;;;14.98;3.88;;;26.70;73.70;;;;;;4903400;28;82200;-74
2022/06/22 14:52:08;;;;;;;15.43;3.55;;;26.40;77.00;;;;;;4905453;28;82479;-75
2022/06/22 14:54:57;;;;;;;11.25;3.47;;;26.10;76.90;;;;;;4902245;28;81996;-74
2022/06/22 14:57:38;;;;;;;16.50;4.18;;;26.10;75.10;;;;;;4898708;28;82408;-75
2022/06/22 15:00:19;;;;;;;16.92;3.75;;;25.90;77.60;;;;;;4900215;28;83126;-75
2022/06/22 15:02:48;;;;;;;13.02;3.45;;;26.10;77.00;;;;;;4897714;28;82075;-75
2022/06/22 15:05:26;;;;;;;15.45;4.13;;;26.30;76.50;;;;;;4897785;28;82121;-75
2022/06/22 15:08:14;;;;;;;16.95;3.78;;;26.30;79.00;;;;;;4899354;28;83454;-75
2022/06/22 15:10:56;;;;;;;11.32;3.00;;;26.30;78.00;;;;;;4896540;28;81898;-74
2022/06/22 15:13:39;;;;;;;14.45;3.35;;;26.10;78.40;;;;;;4898067;28;81940;-75
2022/06/22 15:16:14;;;;;;;13.95;3.40;;;26.10;77.70;;;;;;4902756;28;82581;-75
2022/06/22 15:19:15;;;;;;;10.38;3.22;;;26.10;74.70;;;;;;4899274;28;82881;-75
2022/06/22 15:21:47;;;;;;;14.23;3.90;;;26.20;75.90;;;;;;4901294;28;81903;-74
2022/06/22 15:24:19;;;;;;;18.55;4.78;;;26.10;78.70;;;;;;4901534;28;82004;-74
2022/06/22 15:27:03;;;;;;;17.23;4.45;;;26.20;78.00;;;;;;4901073;28;83096;-75
2022/06/22 15:29:38;;;;;;;15.00;4.43;;;25.80;77.00;;;;;;4893171;28;83005;-73
2022/06/22 15:32:16;;;;;;;14.82;3.85;;;25.90;78.10;;;;;;4891487;28;82216;-74
2022/06/22 15:34:47;;;;;;;18.02;3.97;;;26.00;79.00;;;;;;4899272;28;82293;-74
2022/06/22 15:37:28;;;;;;;11.18;3.47;;;25.80;79.00;;;;;;4899782;28;82099;-74
2022/06/22 15:40:11;;;;;;;11.32;3.47;;;25.80;79.80;;;;;;4898590;28;82265;-74
2022/06/22 15:42:48;;;;;;;15.57;3.75;;;26.10;78.10;;;;;;4898076;28;81917;-74
2022/06/22 15:45:47;;;;;;;13.35;3.67;;;26.40;75.00;;;;;;4894911;28;82690;-74
2022/06/22 15:48:20;;;;;;;11.80;3.67;;;26.40;76.50;;;;;;4897711;28;82806;-75
2022/06/22 15:50:51;;;;;;;15.70;3.97;;;26.40;77.50;;;;;;4897751;28;82093;-74
2022/06/22 15:53:50;;;;;;;13.20;3.45;;;26.50;77.00;;;;;;4891849;28;82777;-73
2022/06/22 15:56:56;;;;;;;14.93;2.53;;;26.60;76.00;;;;;;4890312;28;82709;-74
2022/06/22 15:59:31;;;;;;;14.15;3.45;;;26.60;76.70;;;;;;4856300;28;82682;-74
2022/06/22 16:02:20;;;;;;;16.33;4.32;;;26.70;75.20;;;;;;4892803;28;82862;-74
2022/06/22 16:04:53;;;;;;;13.63;3.40;;;26.60;75.30;;;;;;4899149;28;81754;-74
2022/06/22 16:07:26;;;;;;;10.70;3.20;;;26.70;75.40;;;;;;4900728;28;82768;-74
2022/06/22 16:10:13;;;;;;;10.77;3.10;;;26.90;74.30;;;;;;4897650;28;82129;-74
2022/06/22 16:15:59;;;;;;;14.63;4.05;;;27.00;72.30;;;;;;4902654;28;82183;-73
2022/06/22 16:18:31;;;;;;;16.67;3.95;;;26.80;72.90;;;;;;4899107;28;82833;-74
2022/06/22 16:21:15;;;;;;;16.48;3.40;;;26.70;73.00;;;;;;4899116;28;82998;-74
2022/06/22 16:24:17;;;;;;;10.45;2.92;;;26.70;73.70;;;;;;4900338;28;82968;-75
2022/06/22 16:26:51;;;;;;;13.35;3.80;;;26.50;75.50;;;;;;4896292;28;82457;-76
2022/06/22 16:29:57;;;;;;;13.68;3.72;;;26.30;75.50;;;;;;4899854;28;82247;-76
2022/06/22 16:32:45;;;;;;;12.90;3.65;;;26.60;74.20;;;;;;4856903;28;82434;-75
2022/06/22 16:35:25;;;;;;;12.77;3.72;;;26.70;74.70;;;;;;4857370;28;82144;-74
2022/06/22 16:38:28;;;;;;;12.52;2.30;;;26.80;74.00;;;;;;4881392;28;82192;-75
2022/06/22 16:41:04;;;;;;;12.73;3.67;;;26.80;71.50;;;;;;4898975;28;81735;-73
2022/06/22 16:43:33;;;;;;;10.93;2.20;;;26.70;73.30;;;;;;4898603;28;83118;-75
2022/06/22 16:46:02;;;;;;;12.05;3.03;;;26.60;73.50;;;;;;4900685;28;82117;-75
2022/06/22 16:48:31;;;;;;;;;;;26.50;74.30;;;;;;4898705;28;83042;-75
2022/06/22 16:51:05;;;;;;;10.93;2.85;;;26.60;73.30;;;;;;4900907;28;82018;-75